createdAt,value
2022-12-11T00:00:41.074Z,100315.19
2022-12-11T00:03:28.894Z,100315.66
2022-12-11T00:05:56.809Z,100311.28
2022-12-11T00:08:24.777Z,100306.96
2022-12-11T00:10:52.661Z,100300.27
2022-12-11T00:13:20.532Z,100297.16
2022-12-11T00:15:51.024Z,100295.06
2022-12-11T00:18:19.563Z,100292.83
2022-12-11T00:20:47.403Z,100292.39
2022-12-11T00:23:15.320Z,100291.01
2022-12-11T00:25:47.648Z,100290.02
2022-12-11T00:28:20.452Z,100287.17
2022-12-11T00:30:48.475Z,100285.55
2022-12-11T00:33:17.174Z,100282.39
2022-12-11T00:35:46.883Z,100280.43
2022-12-11T00:38:19.858Z,100291.03
2022-12-11T00:40:49.150Z,100291.90
2022-12-11T00:43:17.839Z,100290.64
2022-12-11T00:45:47.291Z,100293.52
2022-12-11T00:48:15.269Z,100297.96
2022-12-11T00:50:42.999Z,100292.03
2022-12-11T00:53:10.708Z,100283.39
2022-12-11T00:55:40.357Z,100281.70
2022-12-11T00:58:09.197Z,100278.98
2022-12-11T01:00:38.312Z,100278.27
2022-12-11T01:03:06.501Z,100279.61
2022-12-11T01:05:34.740Z,100291.02
2022-12-11T01:08:03.382Z,100293.63
2022-12-11T01:10:32.376Z,100295.03
2022-12-11T01:13:03.953Z,100296.42
2022-12-11T01:15:41.867Z,100298.11
2022-12-11T01:18:12.234Z,100297.16
2022-12-11T01:20:42.657Z,100293.02
2022-12-11T01:23:13.276Z,100296.39
2022-12-11T01:25:42.156Z,100292.48
2022-12-11T01:28:10.058Z,100286.61
2022-12-11T01:30:37.944Z,100284.85
2022-12-11T01:33:05.861Z,100288.00
2022-12-11T01:35:34.079Z,100288.60
2022-12-11T01:38:01.857Z,100287.11
2022-12-11T01:40:29.758Z,100291.05
2022-12-11T01:42:57.476Z,100293.33
2022-12-11T01:45:38.915Z,100289.54
2022-12-11T01:48:10.199Z,100285.56
2022-12-11T01:50:49.114Z,100284.16
2022-12-11T01:53:25.184Z,100288.54
2022-12-11T01:55:55.672Z,100295.15
2022-12-11T01:58:33.860Z,100295.03
2022-12-11T02:01:02.846Z,100295.11
2022-12-11T02:03:30.595Z,100295.23
2022-12-11T02:06:02.382Z,100291.41
2022-12-11T02:08:30.268Z,100285.98
2022-12-11T02:11:15.969Z,100283.02
2022-12-11T02:14:05.297Z,100285.55
2022-12-11T02:16:50.795Z,100285.45
2022-12-11T02:19:40.249Z,100285.75
2022-12-11T02:22:14.005Z,100278.02
2022-12-11T02:24:58.316Z,100274.62
2022-12-11T02:27:29.072Z,100277.80
2022-12-11T02:30:04.821Z,100274.31
2022-12-11T02:32:46.720Z,100271.08
2022-12-11T02:35:28.323Z,100270.48
2022-12-11T02:38:02.683Z,100270.29
2022-12-11T02:40:32.954Z,100267.55
2022-12-11T02:43:04.260Z,100258.90
2022-12-11T02:45:33.801Z,100258.08
2022-12-11T02:48:04.297Z,100258.26
2022-12-11T02:50:35.720Z,100256.51
2022-12-11T02:53:06.617Z,100256.92
2022-12-11T02:55:37.825Z,100255.94
2022-12-11T02:58:12.326Z,100255.06
2022-12-11T03:00:40.582Z,100258.19
2022-12-11T03:03:08.469Z,100256.23
2022-12-11T03:05:36.332Z,100255.47
2022-12-11T03:08:04.582Z,100258.83
2022-12-11T03:10:32.992Z,100262.52
2022-12-11T03:13:06.635Z,100264.63
2022-12-11T03:16:04.018Z,100267.45
2022-12-11T03:18:58.236Z,100267.98
2022-12-11T03:21:32.567Z,100269.48
2022-12-11T03:24:09.125Z,100274.47
2022-12-11T03:26:42.309Z,100270.04
2022-12-11T03:29:20.242Z,100271.78
2022-12-11T03:32:09.642Z,100270.48
2022-12-11T03:34:48.146Z,100267.44
2022-12-11T03:37:17.683Z,100267.52
2022-12-11T03:39:51.920Z,100273.55
2022-12-11T03:42:22.625Z,100269.89
2022-12-11T03:44:54.776Z,100273.27
2022-12-11T03:47:25.789Z,100267.26
2022-12-11T03:49:55.960Z,100266.26
2022-12-11T03:52:27.512Z,100267.85
2022-12-11T03:54:59.677Z,100263.21
2022-12-11T03:57:31.717Z,100260.36
2022-12-11T03:59:59.588Z,100256.14
2022-12-11T04:02:27.345Z,100253.15
2022-12-11T04:04:55.344Z,100256.11
2022-12-11T04:07:23.212Z,100256.77
2022-12-11T04:09:50.962Z,100261.36
2022-12-11T04:12:19.041Z,100254.70
2022-12-11T04:15:01.920Z,100255.52
2022-12-11T04:17:50.469Z,100258.02
2022-12-11T04:20:37.877Z,100256.98
2022-12-11T04:23:25.817Z,100259.92
2022-12-11T04:25:53.823Z,100253.80
2022-12-11T04:28:21.770Z,100250.58
2022-12-11T04:30:50.113Z,100251.06
2022-12-11T04:33:18.063Z,100250.16
2022-12-11T04:35:45.992Z,100245.10
2022-12-11T04:38:13.871Z,100239.91
2022-12-11T04:40:41.648Z,100236.31
2022-12-11T04:43:09.751Z,100234.48
2022-12-11T04:45:37.561Z,100232.91
2022-12-11T04:48:05.519Z,100226.23
2022-12-11T04:50:33.289Z,100227.31
2022-12-11T04:53:01.022Z,100234.86
2022-12-11T04:55:28.838Z,100238.35
2022-12-11T04:57:56.736Z,100235.32
2022-12-11T05:00:24.560Z,100232.93
2022-12-11T05:02:52.363Z,100226.83
2022-12-11T05:05:20.288Z,100224.50
2022-12-11T05:07:48.147Z,100225.82
2022-12-11T05:10:15.976Z,100214.71
2022-12-11T05:12:43.666Z,100218.77
2022-12-11T05:15:11.852Z,100210.70
2022-12-11T05:17:39.723Z,100207.23
2022-12-11T05:20:08.458Z,100200.87
2022-12-11T05:22:37.471Z,100205.36
2022-12-11T05:25:06.222Z,100209.84
2022-12-11T05:27:34.024Z,100208.27
2022-12-11T05:30:01.833Z,100215.20
2022-12-11T05:32:30.503Z,100215.30
2022-12-11T05:34:58.310Z,100218.27
2022-12-11T05:37:26.208Z,100218.17
2022-12-11T05:39:55.119Z,100215.77
2022-12-11T05:42:28.571Z,100213.61
2022-12-11T05:44:57.562Z,100213.89
2022-12-11T05:47:25.889Z,100211.88
2022-12-11T05:49:54.073Z,100213.03
2022-12-11T05:52:22.254Z,100209.73
2022-12-11T05:54:53.073Z,100212.89
2022-12-11T05:57:21.122Z,100215.55
2022-12-11T05:59:49.411Z,100206.48
2022-12-11T06:02:17.597Z,100201.98
2022-12-11T06:04:46.457Z,100205.03
2022-12-11T06:07:14.481Z,100206.54
2022-12-11T06:09:42.523Z,100206.80
2022-12-11T06:12:11.207Z,100213.59
2022-12-11T06:14:39.091Z,100217.30
2022-12-11T06:17:07.488Z,100211.42
2022-12-11T06:19:37.144Z,100214.21
2022-12-11T06:22:05.189Z,100213.16
2022-12-11T06:24:33.066Z,100211.88
2022-12-11T06:27:00.811Z,100210.14
2022-12-11T06:29:28.573Z,100209.02
2022-12-11T06:31:56.648Z,100204.13
2022-12-11T06:34:24.582Z,100203.31
2022-12-11T06:36:52.374Z,100201.59
2022-12-11T06:39:20.468Z,100203.00
2022-12-11T06:41:48.348Z,100207.52
2022-12-11T06:44:16.284Z,100207.84
2022-12-11T06:46:44.260Z,100204.19
2022-12-11T06:49:11.946Z,100201.47
2022-12-11T06:51:39.960Z,100198.89
2022-12-11T06:54:07.822Z,100194.42
2022-12-11T06:56:36.328Z,100194.51
2022-12-11T06:59:07.364Z,100191.10
2022-12-11T07:01:36.075Z,100192.52
2022-12-11T07:04:03.947Z,100200.94
2022-12-11T07:06:31.817Z,100204.39
2022-12-11T07:09:00.631Z,100208.27
2022-12-11T07:11:29.903Z,100215.04
2022-12-11T07:14:00.807Z,100217.13
2022-12-11T07:16:28.807Z,100213.00
2022-12-11T07:18:56.774Z,100212.80
2022-12-11T07:21:24.685Z,100214.11
2022-12-11T07:23:52.752Z,100216.58
2022-12-11T07:26:22.322Z,100206.45
2022-12-11T07:28:50.681Z,100195.27
2022-12-11T07:31:23.364Z,100200.38
2022-12-11T07:33:56.759Z,100197.96
2022-12-11T07:36:25.218Z,100200.48
2022-12-11T07:38:53.549Z,100198.66
2022-12-11T07:41:23.439Z,100204.88
2022-12-11T07:43:56.498Z,100207.61
2022-12-11T07:46:27.363Z,100220.73
2022-12-11T07:48:57.262Z,100226.30
2022-12-11T07:51:35.618Z,100226.58
2022-12-11T07:54:12.943Z,100223.60
2022-12-11T07:56:43.868Z,100220.90
2022-12-11T07:59:13.069Z,100225.94
2022-12-11T08:01:42.368Z,100219.46
2022-12-11T08:04:12.319Z,100221.71
2022-12-11T08:06:40.595Z,100226.73
2022-12-11T08:09:20.626Z,100233.52
2022-12-11T08:11:50.757Z,100231.73
2022-12-11T08:14:18.841Z,100222.80
2022-12-11T08:16:47.250Z,100216.48
2022-12-11T08:19:15.339Z,100210.99
2022-12-11T08:21:43.688Z,100208.80
2022-12-11T08:24:11.567Z,100200.59
2022-12-11T08:26:39.388Z,100194.66
2022-12-11T08:29:07.554Z,100181.10
2022-12-11T08:31:36.166Z,100179.67
2022-12-11T08:34:04.371Z,100179.79
2022-12-11T08:36:32.985Z,100170.80
2022-12-11T08:39:01.378Z,100167.63
2022-12-11T08:41:30.983Z,100174.63
2022-12-11T08:44:01.973Z,100183.29
2022-12-11T08:46:32.688Z,100188.45
2022-12-11T08:49:01.103Z,100185.70
2022-12-11T08:51:34.486Z,100184.74
2022-12-11T08:54:02.813Z,100187.25
2022-12-11T08:56:31.259Z,100183.01
2022-12-11T08:59:00.987Z,100189.02
2022-12-11T09:01:29.571Z,100188.62
2022-12-11T09:03:58.791Z,100189.17
2022-12-11T09:06:29.185Z,100187.59
2022-12-11T09:09:00.095Z,100190.64
2022-12-11T09:11:31.649Z,100192.77
2022-12-11T09:14:05.427Z,100191.69
2022-12-11T09:16:40.483Z,100186.28
2022-12-11T09:19:13.885Z,100188.20
2022-12-11T09:21:43.782Z,100182.95
2022-12-11T09:24:13.611Z,100181.83
2022-12-11T09:26:42.314Z,100179.02
2022-12-11T09:29:10.926Z,100181.54
2022-12-11T09:31:39.360Z,100186.58
2022-12-11T09:34:11.907Z,100180.04
2022-12-11T09:36:41.845Z,100175.38
2022-12-11T09:39:12.406Z,100177.09
2022-12-11T09:41:46.402Z,100170.30
2022-12-11T09:44:18.427Z,100171.77
2022-12-11T09:46:47.646Z,100168.52
2022-12-11T09:49:25.546Z,100173.84
2022-12-11T09:52:01.390Z,100172.70
2022-12-11T09:54:30.957Z,100168.43
2022-12-11T09:57:14.015Z,100160.70
2022-12-11T10:00:17.767Z,100164.00
2022-12-11T10:03:23.134Z,100160.48
2022-12-11T10:06:22.127Z,100157.67
2022-12-11T10:09:09.046Z,100150.69
2022-12-11T10:11:48.290Z,100147.02
2022-12-11T10:14:46.599Z,100146.54
2022-12-11T10:17:23.549Z,100141.13
2022-12-11T10:19:54.152Z,100143.13
2022-12-11T10:22:27.464Z,100145.86
2022-12-11T10:25:11.148Z,100145.95
2022-12-11T10:27:52.824Z,100142.22
2022-12-11T10:30:37.509Z,100133.48
2022-12-11T10:33:11.978Z,100130.16
2022-12-11T10:35:55.149Z,100129.36
2022-12-11T10:38:31.878Z,100120.27
2022-12-11T10:41:11.127Z,100114.38
2022-12-11T10:43:43.523Z,100108.95
2022-12-11T10:46:21.608Z,100105.42
2022-12-11T10:48:59.340Z,100099.95
2022-12-11T10:51:30.822Z,100096.58
2022-12-11T10:54:08.806Z,100095.91
2022-12-11T10:56:38.484Z,100088.33
2022-12-11T10:59:07.435Z,100080.88
2022-12-11T11:01:36.226Z,100082.79
2022-12-11T11:04:14.500Z,100073.36
2022-12-11T11:06:46.207Z,100071.94
2022-12-11T11:09:37.310Z,100070.47
2022-12-11T11:12:18.868Z,100069.58
2022-12-11T11:14:49.706Z,100064.73
2022-12-11T11:17:18.625Z,100059.86
2022-12-11T11:19:48.614Z,100061.27
2022-12-11T11:22:19.885Z,100057.61
2022-12-11T11:24:57.564Z,100059.15
2022-12-11T11:27:49.601Z,100060.83
2022-12-11T11:30:24.807Z,100065.05
2022-12-11T11:33:02.497Z,100065.20
2022-12-11T11:35:32.866Z,100065.34
2022-12-11T11:38:09.990Z,100062.59
2022-12-11T11:40:44.659Z,100059.70
2022-12-11T11:43:29.949Z,100055.81
2022-12-11T11:46:06.256Z,100053.41
2022-12-11T11:48:46.321Z,100050.52
2022-12-11T11:51:26.862Z,100048.61
2022-12-11T11:53:59.547Z,100049.83
2022-12-11T11:56:35.460Z,100045.20
2022-12-11T11:59:23.283Z,100038.52
2022-12-11T12:01:56.376Z,100034.19
2022-12-11T12:04:28.707Z,100029.45
2022-12-11T12:07:24.872Z,100031.56
2022-12-11T12:10:08.055Z,100025.96
2022-12-11T12:12:42.530Z,100024.51
2022-12-11T12:15:31.133Z,100019.28
2022-12-11T12:18:14.509Z,100013.14
2022-12-11T12:21:01.098Z,100007.87
2022-12-11T12:23:36.650Z,100002.60
2022-12-11T12:26:15.729Z,100000.93
2022-12-11T12:29:02.729Z,100001.96
2022-12-11T12:31:42.812Z,100001.31
2022-12-11T12:34:24.292Z,99999.16
2022-12-11T12:37:01.984Z,99998.08
2022-12-11T12:39:36.864Z,100000.83
2022-12-11T12:42:32.367Z,100001.34
2022-12-11T12:45:13.607Z,99995.10
2022-12-11T12:47:53.221Z,99997.25
2022-12-11T12:50:25.923Z,99992.62
2022-12-11T12:52:56.717Z,99989.76
2022-12-11T12:55:29.121Z,99985.70
2022-12-11T12:58:23.036Z,99985.81
2022-12-11T13:00:51.677Z,99982.64
2022-12-11T13:03:23.379Z,99982.92
2022-12-11T13:06:11.604Z,99987.04
2022-12-11T13:08:47.604Z,99984.54
2022-12-11T13:11:18.796Z,99983.07
2022-12-11T13:14:28.399Z,99985.73
2022-12-11T13:17:21.762Z,99989.53
2022-12-11T13:19:57.656Z,99989.98
2022-12-11T13:22:26.538Z,99989.42
2022-12-11T13:25:21.397Z,99991.65
2022-12-11T13:27:50.327Z,99987.86
2022-12-11T13:30:18.858Z,99994.80
2022-12-11T13:33:03.253Z,99988.79
2022-12-11T13:35:33.783Z,99990.59
2022-12-11T13:38:09.091Z,99991.58
2022-12-11T13:40:40.200Z,99991.26
2022-12-11T13:43:18.562Z,99990.70
2022-12-11T13:45:50.625Z,99989.98
2022-12-11T13:48:27.802Z,99985.01
2022-12-11T13:50:58.085Z,99990.73
2022-12-11T13:53:26.526Z,99992.27
2022-12-11T13:56:06.653Z,99988.67
2022-12-11T13:58:38.568Z,99987.23
2022-12-11T14:01:11.888Z,99992.85
2022-12-11T14:04:01.610Z,99993.92
2022-12-11T14:06:31.347Z,99996.59
2022-12-11T14:09:01.762Z,99991.38
2022-12-11T14:11:42.507Z,99987.48
2022-12-11T14:14:22.392Z,99989.27
2022-12-11T14:16:52.271Z,99986.27
2022-12-11T14:19:23.304Z,99989.91
2022-12-11T14:22:04.160Z,99990.52
2022-12-11T14:24:32.929Z,99987.10
2022-12-11T14:27:01.874Z,99982.63
2022-12-11T14:29:32.843Z,99986.06
2022-12-11T14:32:06.076Z,99989.81
2022-12-11T14:34:44.515Z,99993.25
2022-12-11T14:37:20.449Z,99988.34
2022-12-11T14:40:03.211Z,99986.20
2022-12-11T14:42:38.779Z,99988.46
2022-12-11T14:45:28.505Z,99994.55
2022-12-11T14:47:58.799Z,99998.58
2022-12-11T14:50:52.309Z,99997.48
2022-12-11T14:53:25.443Z,99992.85
2022-12-11T14:55:55.709Z,99988.76
2022-12-11T14:58:29.465Z,99984.58
2022-12-11T15:01:03.492Z,99985.16
2022-12-11T15:03:35.157Z,99985.20
2022-12-11T15:06:21.396Z,99986.89
2022-12-11T15:08:49.379Z,99980.83
2022-12-11T15:11:19.134Z,99981.44
2022-12-11T15:13:56.594Z,99978.49
2022-12-11T15:16:28.631Z,99978.74
2022-12-11T15:18:58.934Z,99980.02
2022-12-11T15:21:32.372Z,99983.08
2022-12-11T15:24:03.528Z,99982.48
2022-12-11T15:26:48.189Z,99981.30
2022-12-11T15:29:27.951Z,99980.66
2022-12-11T15:32:00.768Z,99979.02
2022-12-11T15:34:33.814Z,99973.11
2022-12-11T15:37:02.174Z,99972.80
2022-12-11T15:39:30.023Z,99970.83
2022-12-11T15:41:58.384Z,99969.76
2022-12-11T15:44:27.201Z,99968.70
2022-12-11T15:46:56.102Z,99973.30
2022-12-11T15:49:24.098Z,99973.66
2022-12-11T15:51:51.898Z,99975.67
2022-12-11T15:54:20.431Z,99972.41
2022-12-11T15:56:49.073Z,99969.61
2022-12-11T15:59:17.474Z,99969.44
2022-12-11T16:01:45.472Z,99967.93
2022-12-11T16:04:13.493Z,99973.17
2022-12-11T16:06:45.267Z,99967.24
2022-12-11T16:09:13.524Z,99969.48
2022-12-11T16:11:41.376Z,99963.24
2022-12-11T16:14:09.214Z,99962.21
2022-12-11T16:16:37.008Z,99958.20
2022-12-11T16:19:04.833Z,99956.00
2022-12-11T16:21:32.882Z,99950.47
2022-12-11T16:24:00.930Z,99946.05
2022-12-11T16:26:28.772Z,99953.69
2022-12-11T16:28:57.214Z,99954.55
2022-12-11T16:31:25.170Z,99957.85
2022-12-11T16:33:53.166Z,99960.05
2022-12-11T16:36:21.098Z,99965.30
2022-12-11T16:38:53.893Z,99962.55
2022-12-11T16:41:23.082Z,99959.80
2022-12-11T16:43:51.951Z,99964.75
2022-12-11T16:46:22.398Z,99963.81
2022-12-11T16:48:50.607Z,99960.34
2022-12-11T16:51:20.678Z,99962.45
2022-12-11T16:53:50.047Z,99968.77
2022-12-11T16:56:18.464Z,99963.66
2022-12-11T16:58:48.058Z,99960.81
2022-12-11T17:01:16.672Z,99961.67
2022-12-11T17:03:46.144Z,99962.61
2022-12-11T17:06:17.526Z,99964.91
2022-12-11T17:08:46.216Z,99963.08
2022-12-11T17:11:20.587Z,99966.68
2022-12-11T17:13:55.791Z,99963.80
2022-12-11T17:16:26.393Z,99960.34
2022-12-11T17:18:56.497Z,99955.27
2022-12-11T17:21:26.004Z,99954.40
2022-12-11T17:23:55.301Z,99954.08
2022-12-11T17:26:25.475Z,99952.34
2022-12-11T17:28:53.722Z,99957.05
2022-12-11T17:31:23.309Z,99955.31
2022-12-11T17:33:54.213Z,99957.73
2022-12-11T17:36:23.407Z,99957.47
2022-12-11T17:38:59.338Z,99959.64
2022-12-11T17:41:30.219Z,99958.97
2022-12-11T17:44:02.863Z,99958.63
2022-12-11T17:46:33.703Z,99961.36
2022-12-11T17:49:05.282Z,99963.84
2022-12-11T17:51:34.588Z,99964.50
2022-12-11T17:54:14.669Z,99967.23
2022-12-11T17:56:47.587Z,99969.10
2022-12-11T17:59:18.205Z,99971.02
2022-12-11T18:01:46.802Z,99976.37
2022-12-11T18:04:15.298Z,99977.31
2022-12-11T18:06:44.136Z,99975.95
2022-12-11T18:09:13.061Z,99973.66
2022-12-11T18:11:43.165Z,99973.15
2022-12-11T18:14:16.876Z,99972.26
2022-12-11T18:16:46.510Z,99969.71
2022-12-11T18:19:16.285Z,99968.67
2022-12-11T18:21:46.754Z,99971.66
2022-12-11T18:24:15.670Z,99971.36
2022-12-11T18:26:45.109Z,99972.80
2022-12-11T18:29:17.564Z,99973.83
2022-12-11T18:31:46.707Z,99973.66
2022-12-11T18:38:05.858Z,99972.73
2022-12-11T18:43:00.152Z,99974.03
2022-12-11T18:45:00.956Z,99974.05
2022-12-11T18:47:31.633Z,99971.22
2022-12-11T18:50:07.427Z,99968.43
2022-12-11T18:52:39.650Z,99967.08
2022-12-11T18:55:12.840Z,99964.98
2022-12-11T18:57:44.509Z,99962.11
2022-12-11T19:00:14.204Z,99958.95
2022-12-11T19:02:43.466Z,99960.89
2022-12-11T19:06:31.200Z,99959.66
2022-12-11T19:09:00.940Z,99959.70
2022-12-11T19:11:34.015Z,99961.81
2022-12-11T19:14:07.513Z,99958.98
2022-12-11T19:16:47.832Z,99960.02
2022-12-11T19:20:13.560Z,99961.45
2022-12-11T19:23:01.708Z,99962.50
2022-12-11T19:29:00.340Z,99965.19
2022-12-11T19:31:33.553Z,99967.59
2022-12-11T19:34:06.026Z,99964.42
2022-12-11T19:36:38.820Z,99966.47
2022-12-11T19:39:13.399Z,99963.51
2022-12-11T19:41:48.147Z,99964.52
2022-12-11T19:44:30.391Z,99960.27
2022-12-11T19:47:05.806Z,99958.92
2022-12-11T19:49:35.208Z,99961.57
2022-12-11T19:52:04.848Z,99959.76
2022-12-11T19:54:34.110Z,99959.01
2022-12-11T19:57:03.481Z,99965.04
2022-12-11T19:59:32.584Z,99967.34
2022-12-11T20:02:01.180Z,99966.56
2022-12-11T20:04:32.003Z,99963.45
2022-12-11T20:07:01.178Z,99967.33
2022-12-11T20:09:30.240Z,99965.61
2022-12-11T20:11:58.609Z,99963.48
2022-12-11T20:14:29.151Z,99960.52
2022-12-11T20:17:15.002Z,99958.61
2022-12-11T20:19:45.230Z,99958.86
2022-12-11T20:22:15.016Z,99960.29
2022-12-11T20:24:44.030Z,99956.14
2022-12-11T20:27:13.146Z,99950.30
2022-12-11T20:29:41.521Z,99950.58
2022-12-11T20:32:11.757Z,99942.31
2022-12-11T20:34:40.566Z,99950.24
2022-12-11T20:37:09.353Z,99947.31
2022-12-11T20:39:37.828Z,99949.48
2022-12-11T20:42:06.379Z,99951.08
2022-12-11T20:44:35.531Z,99944.52
2022-12-11T20:47:06.839Z,99950.51
2022-12-11T20:49:35.325Z,99946.19
2022-12-11T20:52:03.856Z,99944.38
2022-12-11T20:54:33.045Z,99946.80
2022-12-11T20:57:03.131Z,99949.17
2022-12-11T20:59:31.297Z,99944.77
2022-12-11T21:01:59.360Z,99943.70
2022-12-11T21:04:28.775Z,99945.91
2022-12-11T21:06:57.595Z,99940.23
2022-12-11T21:09:27.824Z,99943.26
2022-12-11T21:11:58.686Z,99945.43
2022-12-11T21:14:28.240Z,99944.47
2022-12-11T21:16:59.744Z,99947.63
2022-12-11T21:19:29.936Z,99945.84
2022-12-11T21:21:58.525Z,99944.44
2022-12-11T21:24:29.043Z,99943.52
2022-12-11T21:26:59.829Z,99946.49
2022-12-11T21:29:29.445Z,99943.61
2022-12-11T21:31:58.534Z,99944.38
2022-12-11T21:34:27.520Z,99939.95
2022-12-11T21:36:57.389Z,99942.27
2022-12-11T21:39:28.805Z,99941.35
2022-12-11T21:41:58.289Z,99944.98
2022-12-11T21:47:14.317Z,99941.91
2022-12-11T21:49:42.495Z,99941.23
2022-12-11T21:52:10.779Z,99939.54
2022-12-11T21:54:39.255Z,99941.08
2022-12-11T21:57:07.535Z,99940.25
2022-12-11T21:59:36.018Z,99940.08
2022-12-11T22:02:04.357Z,99933.31
2022-12-11T22:04:32.521Z,99935.83
2022-12-11T22:07:00.779Z,99932.41
2022-12-11T22:09:28.659Z,99934.59
2022-12-11T22:11:58.529Z,99934.11
2022-12-11T22:14:27.442Z,99930.11
2022-12-11T22:16:55.645Z,99927.85
2022-12-11T22:19:27.819Z,99927.73
2022-12-11T22:22:00.322Z,99928.65
2022-12-11T22:24:28.290Z,99929.66
2022-12-11T22:26:56.957Z,99930.80
2022-12-11T22:29:24.793Z,99930.19
2022-12-11T22:31:53.516Z,99930.40
2022-12-11T22:34:22.286Z,99929.16
2022-12-11T22:36:50.612Z,99928.64
2022-12-11T22:39:19.063Z,99929.19
2022-12-11T22:41:48.295Z,99929.02
2022-12-11T22:44:19.649Z,99928.36
2022-12-11T22:46:50.555Z,99933.13
2022-12-11T22:49:20.946Z,99936.35
2022-12-11T22:51:49.667Z,99934.60
2022-12-11T22:54:17.808Z,99933.80
2022-12-11T22:56:46.107Z,99937.50
2022-12-11T22:59:13.915Z,99939.98
2022-12-11T23:01:42.008Z,99939.27
2022-12-11T23:04:09.888Z,99939.06
2022-12-11T23:06:38.178Z,99940.89
2022-12-11T23:09:06.067Z,99943.00
2022-12-11T23:11:36.729Z,99941.39
2022-12-11T23:14:06.526Z,99943.10
2022-12-11T23:16:34.711Z,99943.52
2022-12-11T23:19:02.709Z,99934.78
2022-12-11T23:21:30.483Z,99932.69
2022-12-11T23:23:58.682Z,99934.21
2022-12-11T23:26:28.095Z,99933.55
2022-12-11T23:28:57.580Z,99937.35
2022-12-11T23:31:26.057Z,99941.86
2022-12-11T23:33:53.937Z,99936.77
2022-12-11T23:36:22.376Z,99940.41
2022-12-11T23:38:55.082Z,99941.95
2022-12-11T23:41:23.354Z,99945.58
2022-12-11T23:43:52.037Z,99944.86
2022-12-11T23:46:23.128Z,99944.14
2022-12-11T23:48:52.500Z,99945.84
2022-12-11T23:51:22.227Z,99946.88
2022-12-11T23:53:51.028Z,99947.00
2022-12-11T23:56:24.508Z,99941.61
2022-12-11T23:58:53.134Z,99940.35
